sensor_id;sensor_type;location;lat;lon;timestamp;P1;durP1;ratioP1;P2;durP2;ratioP2
23155;SDS011;11746;50.876;4.246;2022-09-06T00:01:42;4.18;;;2.65;;
23155;SDS011;11746;50.876;4.246;2022-09-06T00:04:09;6.28;;;2.65;;
23155;SDS011;11746;50.876;4.246;2022-09-06T00:06:37;4.65;;;2.67;;
23155;SDS011;11746;50.876;4.246;2022-09-06T00:09:04;3.53;;;2.42;;
23155;SDS011;11746;50.876;4.246;2022-09-06T00:11:30;4.57;;;2.80;;
23155;SDS011;11746;50.876;4.246;2022-09-06T00:13:57;5.15;;;2.67;;
23155;SDS011;11746;50.876;4.246;2022-09-06T00:16:24;6.15;;;2.60;;
23155;SDS011;11746;50.876;4.246;2022-09-06T00:18:53;4.68;;;2.63;;
23155;SDS011;11746;50.876;4.246;2022-09-06T00:23:50;3.72;;;2.25;;
23155;SDS011;11746;50.876;4.246;2022-09-06T00:26:18;4.95;;;2.42;;
23155;SDS011;11746;50.876;4.246;2022-09-06T00:28:44;4.47;;;2.50;;
23155;SDS011;11746;50.876;4.246;2022-09-06T00:31:11;3.60;;;2.60;;
23155;SDS011;11746;50.876;4.246;2022-09-06T00:33:38;3.58;;;2.50;;
23155;SDS011;11746;50.876;4.246;2022-09-06T00:36:04;6.78;;;2.50;;
23155;SDS011;11746;50.876;4.246;2022-09-06T00:38:30;3.20;;;2.10;;
23155;SDS011;11746;50.876;4.246;2022-09-06T00:40:57;4.70;;;2.55;;
23155;SDS011;11746;50.876;4.246;2022-09-06T00:43:24;4.25;;;2.60;;
23155;SDS011;11746;50.876;4.246;2022-09-06T00:45:51;4.75;;;2.55;;
23155;SDS011;11746;50.876;4.246;2022-09-06T00:48:18;3.08;;;2.10;;
23155;SDS011;11746;50.876;4.246;2022-09-06T00:50:46;5.45;;;2.50;;
23155;SDS011;11746;50.876;4.246;2022-09-06T00:53:14;4.75;;;2.33;;
23155;SDS011;11746;50.876;4.246;2022-09-06T00:55:41;2.90;;;2.05;;
23155;SDS011;11746;50.876;4.246;2022-09-06T00:58:07;2.67;;;2.10;;
23155;SDS011;11746;50.876;4.246;2022-09-06T01:00:34;3.13;;;2.55;;
23155;SDS011;11746;50.876;4.246;2022-09-06T01:03:01;4.00;;;2.10;;
23155;SDS011;11746;50.876;4.246;2022-09-06T01:05:32;3.33;;;2.20;;
23155;SDS011;11746;50.876;4.246;2022-09-06T01:08:36;2.70;;;2.13;;
23155;SDS011;11746;50.876;4.246;2022-09-06T01:11:28;3.55;;;2.40;;
23155;SDS011;11746;50.876;4.246;2022-09-06T01:14:09;3.42;;;2.20;;
23155;SDS011;11746;50.876;4.246;2022-09-06T01:17:00;3.72;;;2.80;;
23155;SDS011;11746;50.876;4.246;2022-09-06T01:25:32;4.70;;;2.78;;
23155;SDS011;11746;50.876;4.246;2022-09-06T01:36:18;3.80;;;2.47;;
23155;SDS011;11746;50.876;4.246;2022-09-06T01:38:49;3.40;;;2.28;;
23155;SDS011;11746;50.876;4.246;2022-09-06T01:41:15;3.75;;;2.28;;
23155;SDS011;11746;50.876;4.246;2022-09-06T01:43:42;2.80;;;2.10;;
23155;SDS011;11746;50.876;4.246;2022-09-06T01:52:01;2.35;;;1.95;;
23155;SDS011;11746;50.876;4.246;2022-09-06T01:54:38;2.80;;;1.85;;
23155;SDS011;11746;50.876;4.246;2022-09-06T02:00:16;2.65;;;2.00;;
23155;SDS011;11746;50.876;4.246;2022-09-06T02:05:35;3.40;;;2.03;;
23155;SDS011;11746;50.876;4.246;2022-09-06T02:08:13;3.92;;;2.20;;
23155;SDS011;11746;50.876;4.246;2022-09-06T02:10:50;4.60;;;2.10;;
23155;SDS011;11746;50.876;4.246;2022-09-06T02:13:38;4.53;;;2.20;;
23155;SDS011;11746;50.876;4.246;2022-09-06T02:16:06;5.75;;;2.20;;
23155;SDS011;11746;50.876;4.246;2022-09-06T02:18:43;3.20;;;2.03;;
23155;SDS011;11746;50.876;4.246;2022-09-06T02:21:26;3.67;;;2.20;;
23155;SDS011;11746;50.876;4.246;2022-09-06T02:24:00;4.57;;;2.08;;
23155;SDS011;11746;50.876;4.246;2022-09-06T02:26:31;4.85;;;2.40;;
23155;SDS011;11746;50.876;4.246;2022-09-06T02:29:01;3.30;;;2.15;;
23155;SDS011;11746;50.876;4.246;2022-09-06T02:31:28;3.33;;;2.28;;
23155;SDS011;11746;50.876;4.246;2022-09-06T02:33:58;3.40;;;2.33;;
23155;SDS011;11746;50.876;4.246;2022-09-06T02:36:25;4.28;;;2.30;;
23155;SDS011;11746;50.876;4.246;2022-09-06T02:38:52;5.20;;;2.30;;
23155;SDS011;11746;50.876;4.246;2022-09-06T02:41:19;3.35;;;2.45;;
23155;SDS011;11746;50.876;4.246;2022-09-06T02:43:47;4.32;;;2.20;;
23155;SDS011;11746;50.876;4.246;2022-09-06T02:46:13;4.18;;;2.30;;
23155;SDS011;11746;50.876;4.246;2022-09-06T02:48:39;2.72;;;2.10;;
23155;SDS011;11746;50.876;4.246;2022-09-06T02:51:05;4.00;;;2.72;;
23155;SDS011;11746;50.876;4.246;2022-09-06T02:53:32;3.80;;;2.30;;
23155;SDS011;11746;50.876;4.246;2022-09-06T02:55:58;3.53;;;2.55;;
23155;SDS011;11746;50.876;4.246;2022-09-06T02:58:25;4.53;;;2.60;;
23155;SDS011;11746;50.876;4.246;2022-09-06T03:00:52;3.67;;;2.22;;
23155;SDS011;11746;50.876;4.246;2022-09-06T03:03:19;6.32;;;2.75;;
23155;SDS011;11746;50.876;4.246;2022-09-06T03:05:47;3.78;;;2.78;;
23155;SDS011;11746;50.876;4.246;2022-09-06T03:08:15;3.58;;;2.60;;
23155;SDS011;11746;50.876;4.246;2022-09-06T03:10:52;4.82;;;2.78;;
23155;SDS011;11746;50.876;4.246;2022-09-06T03:13:21;3.60;;;2.70;;
23155;SDS011;11746;50.876;4.246;2022-09-06T03:15:52;3.65;;;2.55;;
23155;SDS011;11746;50.876;4.246;2022-09-06T03:18:21;4.07;;;2.50;;
23155;SDS011;11746;50.876;4.246;2022-09-06T03:20:49;4.82;;;2.88;;
23155;SDS011;11746;50.876;4.246;2022-09-06T03:23:19;5.72;;;3.20;;
23155;SDS011;11746;50.876;4.246;2022-09-06T03:26:07;4.28;;;3.00;;
23155;SDS011;11746;50.876;4.246;2022-09-06T03:28:33;5.25;;;3.08;;
23155;SDS011;11746;50.876;4.246;2022-09-06T03:31:00;6.07;;;3.60;;
23155;SDS011;11746;50.876;4.246;2022-09-06T03:33:26;4.07;;;3.42;;
23155;SDS011;11746;50.876;4.246;2022-09-06T03:35:53;8.05;;;3.70;;
23155;SDS011;11746;50.876;4.246;2022-09-06T03:38:22;5.47;;;3.72;;
23155;SDS011;11746;50.876;4.246;2022-09-06T03:40:49;7.38;;;3.97;;
23155;SDS011;11746;50.876;4.246;2022-09-06T03:43:16;5.20;;;3.78;;
23155;SDS011;11746;50.876;4.246;2022-09-06T03:45:44;4.80;;;3.78;;
23155;SDS011;11746;50.876;4.246;2022-09-06T03:48:12;4.90;;;3.92;;
23155;SDS011;11746;50.876;4.246;2022-09-06T03:50:42;7.38;;;4.00;;
23155;SDS011;11746;50.876;4.246;2022-09-06T03:53:14;6.03;;;4.40;;
23155;SDS011;11746;50.876;4.246;2022-09-06T03:55:43;6.45;;;4.32;;
23155;SDS011;11746;50.876;4.246;2022-09-06T03:58:13;7.18;;;3.95;;
23155;SDS011;11746;50.876;4.246;2022-09-06T04:00:41;6.70;;;4.53;;
23155;SDS011;11746;50.876;4.246;2022-09-06T04:03:08;9.80;;;4.65;;
23155;SDS011;11746;50.876;4.246;2022-09-06T04:05:34;7.07;;;4.35;;
23155;SDS011;11746;50.876;4.246;2022-09-06T04:08:01;5.20;;;3.85;;
23155;SDS011;11746;50.876;4.246;2022-09-06T04:10:27;5.15;;;4.00;;
23155;SDS011;11746;50.876;4.246;2022-09-06T04:12:53;5.35;;;4.30;;
23155;SDS011;11746;50.876;4.246;2022-09-06T04:15:19;4.85;;;3.95;;
23155;SDS011;11746;50.876;4.246;2022-09-06T04:17:45;5.68;;;3.97;;
23155;SDS011;11746;50.876;4.246;2022-09-06T04:20:12;5.70;;;3.80;;
23155;SDS011;11746;50.876;4.246;2022-09-06T04:22:39;7.57;;;4.30;;
23155;SDS011;11746;50.876;4.246;2022-09-06T04:25:06;7.10;;;3.65;;
23155;SDS011;11746;50.876;4.246;2022-09-06T04:27:33;6.80;;;4.25;;
23155;SDS011;11746;50.876;4.246;2022-09-06T04:29:59;6.72;;;4.63;;
23155;SDS011;11746;50.876;4.246;2022-09-06T04:32:25;6.80;;;3.90;;
23155;SDS011;11746;50.876;4.246;2022-09-06T04:34:51;5.90;;;4.30;;
23155;SDS011;11746;50.876;4.246;2022-09-06T04:37:17;5.70;;;4.13;;
23155;SDS011;11746;50.876;4.246;2022-09-06T04:39:47;7.70;;;4.03;;
23155;SDS011;11746;50.876;4.246;2022-09-06T04:42:13;5.93;;;4.43;;
23155;SDS011;11746;50.876;4.246;2022-09-06T04:44:40;5.13;;;4.28;;
23155;SDS011;11746;50.876;4.246;2022-09-06T04:47:09;5.20;;;4.07;;
23155;SDS011;11746;50.876;4.246;2022-09-06T04:49:40;4.28;;;3.83;;
23155;SDS011;11746;50.876;4.246;2022-09-06T04:52:06;10.45;;;4.60;;
23155;SDS011;11746;50.876;4.246;2022-09-06T04:54:33;11.60;;;4.38;;
23155;SDS011;11746;50.876;4.246;2022-09-06T04:56:59;6.40;;;3.80;;
23155;SDS011;11746;50.876;4.246;2022-09-06T04:59:26;4.88;;;4.00;;
23155;SDS011;11746;50.876;4.246;2022-09-06T05:01:54;6.68;;;4.07;;
23155;SDS011;11746;50.876;4.246;2022-09-06T05:04:19;5.63;;;3.90;;
23155;SDS011;11746;50.876;4.246;2022-09-06T05:06:46;6.90;;;4.00;;
23155;SDS011;11746;50.876;4.246;2022-09-06T05:09:12;6.45;;;4.22;;
23155;SDS011;11746;50.876;4.246;2022-09-06T05:11:38;7.80;;;4.72;;
23155;SDS011;11746;50.876;4.246;2022-09-06T05:14:05;7.20;;;4.78;;
23155;SDS011;11746;50.876;4.246;2022-09-06T05:16:31;6.50;;;4.00;;
23155;SDS011;11746;50.876;4.246;2022-09-06T05:18:57;5.97;;;3.83;;
23155;SDS011;11746;50.876;4.246;2022-09-06T05:21:24;6.18;;;3.90;;
23155;SDS011;11746;50.876;4.246;2022-09-06T05:23:50;6.90;;;4.47;;
23155;SDS011;11746;50.876;4.246;2022-09-06T05:26:17;5.20;;;4.07;;
23155;SDS011;11746;50.876;4.246;2022-09-06T05:28:43;5.57;;;4.18;;
23155;SDS011;11746;50.876;4.246;2022-09-06T05:31:10;7.63;;;4.50;;
23155;SDS011;11746;50.876;4.246;2022-09-06T05:33:37;5.07;;;4.10;;
23155;SDS011;11746;50.876;4.246;2022-09-06T05:36:04;6.25;;;4.22;;
23155;SDS011;11746;50.876;4.246;2022-09-06T05:38:31;11.25;;;4.80;;
23155;SDS011;11746;50.876;4.246;2022-09-06T05:40:57;6.50;;;4.15;;
23155;SDS011;11746;50.876;4.246;2022-09-06T05:43:23;6.20;;;4.30;;
23155;SDS011;11746;50.876;4.246;2022-09-06T05:45:49;6.43;;;4.03;;
23155;SDS011;11746;50.876;4.246;2022-09-06T05:48:15;6.20;;;3.80;;
23155;SDS011;11746;50.876;4.246;2022-09-06T05:50:43;5.53;;;3.40;;
23155;SDS011;11746;50.876;4.246;2022-09-06T05:53:09;7.05;;;4.38;;
23155;SDS011;11746;50.876;4.246;2022-09-06T05:55:37;7.05;;;4.10;;
23155;SDS011;11746;50.876;4.246;2022-09-06T05:58:03;5.50;;;3.60;;
23155;SDS011;11746;50.876;4.246;2022-09-06T06:00:29;5.82;;;3.35;;
23155;SDS011;11746;50.876;4.246;2022-09-06T06:02:55;8.02;;;3.53;;
23155;SDS011;11746;50.876;4.246;2022-09-06T06:05:21;6.00;;;3.70;;
23155;SDS011;11746;50.876;4.246;2022-09-06T06:07:47;6.95;;;3.63;;
23155;SDS011;11746;50.876;4.246;2022-09-06T06:10:14;4.88;;;3.80;;
23155;SDS011;11746;50.876;4.246;2022-09-06T06:12:40;12.80;;;4.15;;
23155;SDS011;11746;50.876;4.246;2022-09-06T06:15:07;6.78;;;3.58;;
23155;SDS011;11746;50.876;4.246;2022-09-06T06:17:34;7.50;;;3.47;;
23155;SDS011;11746;50.876;4.246;2022-09-06T06:20:00;6.15;;;3.15;;
23155;SDS011;11746;50.876;4.246;2022-09-06T06:22:26;7.43;;;3.42;;
23155;SDS011;11746;50.876;4.246;2022-09-06T06:24:53;4.68;;;3.10;;
23155;SDS011;11746;50.876;4.246;2022-09-06T06:27:20;6.70;;;2.97;;
23155;SDS011;11746;50.876;4.246;2022-09-06T06:29:46;6.53;;;3.35;;
23155;SDS011;11746;50.876;4.246;2022-09-06T06:32:13;5.85;;;3.08;;
23155;SDS011;11746;50.876;4.246;2022-09-06T06:34:41;5.13;;;2.97;;
23155;SDS011;11746;50.876;4.246;2022-09-06T06:37:10;5.32;;;2.70;;
23155;SDS011;11746;50.876;4.246;2022-09-06T06:39:36;5.40;;;2.58;;
23155;SDS011;11746;50.876;4.246;2022-09-06T06:42:02;3.55;;;2.30;;
23155;SDS011;11746;50.876;4.246;2022-09-06T06:44:28;6.50;;;2.70;;
23155;SDS011;11746;50.876;4.246;2022-09-06T06:46:54;11.40;;;3.60;;
23155;SDS011;11746;50.876;4.246;2022-09-06T06:49:22;8.98;;;2.90;;
23155;SDS011;11746;50.876;4.246;2022-09-06T06:51:48;12.95;;;3.40;;
23155;SDS011;11746;50.876;4.246;2022-09-06T06:54:14;6.90;;;3.20;;
23155;SDS011;11746;50.876;4.246;2022-09-06T06:56:41;20.90;;;4.25;;
23155;SDS011;11746;50.876;4.246;2022-09-06T06:59:09;28.10;;;4.25;;
23155;SDS011;11746;50.876;4.246;2022-09-06T07:01:36;6.25;;;2.90;;
23155;SDS011;11746;50.876;4.246;2022-09-06T07:04:02;5.43;;;2.67;;
23155;SDS011;11746;50.876;4.246;2022-09-06T07:06:29;5.32;;;2.50;;
23155;SDS011;11746;50.876;4.246;2022-09-06T07:08:56;3.97;;;2.53;;
23155;SDS011;11746;50.876;4.246;2022-09-06T07:11:23;4.07;;;2.42;;
23155;SDS011;11746;50.876;4.246;2022-09-06T07:13:49;6.60;;;2.42;;
23155;SDS011;11746;50.876;4.246;2022-09-06T07:16:17;4.90;;;2.33;;
23155;SDS011;11746;50.876;4.246;2022-09-06T07:18:46;7.50;;;3.13;;
23155;SDS011;11746;50.876;4.246;2022-09-06T07:21:17;4.82;;;2.63;;
23155;SDS011;11746;50.876;4.246;2022-09-06T07:23:44;15.05;;;3.40;;
23155;SDS011;11746;50.876;4.246;2022-09-06T07:26:15;5.30;;;3.00;;
23155;SDS011;11746;50.876;4.246;2022-09-06T07:28:43;4.75;;;2.97;;
23155;SDS011;11746;50.876;4.246;2022-09-06T07:31:09;5.90;;;3.15;;
23155;SDS011;11746;50.876;4.246;2022-09-06T07:33:36;4.25;;;2.95;;
23155;SDS011;11746;50.876;4.246;2022-09-06T07:36:03;9.32;;;2.75;;
23155;SDS011;11746;50.876;4.246;2022-09-06T07:38:32;5.28;;;3.13;;
23155;SDS011;11746;50.876;4.246;2022-09-06T07:41:01;17.52;;;4.13;;
23155;SDS011;11746;50.876;4.246;2022-09-06T07:43:32;6.05;;;3.00;;
23155;SDS011;11746;50.876;4.246;2022-09-06T07:46:10;6.18;;;2.88;;
23155;SDS011;11746;50.876;4.246;2022-09-06T07:48:38;8.02;;;2.72;;
23155;SDS011;11746;50.876;4.246;2022-09-06T07:51:10;6.70;;;2.60;;
23155;SDS011;11746;50.876;4.246;2022-09-06T07:53:40;6.35;;;2.40;;
23155;SDS011;11746;50.876;4.246;2022-09-06T07:56:09;4.30;;;2.42;;
23155;SDS011;11746;50.876;4.246;2022-09-06T07:58:37;6.20;;;2.65;;
23155;SDS011;11746;50.876;4.246;2022-09-06T08:04:09;9.70;;;3.58;;
23155;SDS011;11746;50.876;4.246;2022-09-06T08:06:39;5.30;;;2.65;;
23155;SDS011;11746;50.876;4.246;2022-09-06T08:09:14;10.52;;;3.30;;
23155;SDS011;11746;50.876;4.246;2022-09-06T08:11:41;9.95;;;3.30;;
23155;SDS011;11746;50.876;4.246;2022-09-06T08:14:08;15.32;;;4.82;;
23155;SDS011;11746;50.876;4.246;2022-09-06T08:16:35;6.57;;;3.15;;
23155;SDS011;11746;50.876;4.246;2022-09-06T08:19:06;9.15;;;3.40;;
23155;SDS011;11746;50.876;4.246;2022-09-06T08:21:36;5.60;;;3.33;;
23155;SDS011;11746;50.876;4.246;2022-09-06T08:24:03;7.63;;;3.22;;
23155;SDS011;11746;50.876;4.246;2022-09-06T08:26:32;5.45;;;3.42;;
23155;SDS011;11746;50.876;4.246;2022-09-06T08:29:00;6.68;;;3.15;;
23155;SDS011;11746;50.876;4.246;2022-09-06T08:31:28;8.35;;;3.17;;
23155;SDS011;11746;50.876;4.246;2022-09-06T08:33:57;6.32;;;3.33;;
23155;SDS011;11746;50.876;4.246;2022-09-06T08:36:24;4.65;;;3.25;;
23155;SDS011;11746;50.876;4.246;2022-09-06T08:38:54;7.00;;;3.28;;
23155;SDS011;11746;50.876;4.246;2022-09-06T08:41:44;6.95;;;3.60;;
23155;SDS011;11746;50.876;4.246;2022-09-06T08:44:42;7.53;;;3.85;;
23155;SDS011;11746;50.876;4.246;2022-09-06T08:47:17;6.70;;;3.47;;
23155;SDS011;11746;50.876;4.246;2022-09-06T09:00:55;5.78;;;3.22;;
23155;SDS011;11746;50.876;4.246;2022-09-06T09:03:25;6.75;;;4.20;;
23155;SDS011;11746;50.876;4.246;2022-09-06T09:06:07;9.25;;;3.95;;
23155;SDS011;11746;50.876;4.246;2022-09-06T09:11:20;8.95;;;3.97;;
23155;SDS011;11746;50.876;4.246;2022-09-06T09:13:50;5.65;;;3.58;;
23155;SDS011;11746;50.876;4.246;2022-09-06T09:18:59;5.55;;;4.07;;
23155;SDS011;11746;50.876;4.246;2022-09-06T09:21:28;6.50;;;3.53;;
23155;SDS011;11746;50.876;4.246;2022-09-06T09:23:58;6.82;;;3.83;;
23155;SDS011;11746;50.876;4.246;2022-09-06T09:26:30;7.82;;;3.63;;
23155;SDS011;11746;50.876;4.246;2022-09-06T09:31:39;8.88;;;4.20;;
23155;SDS011;11746;50.876;4.246;2022-09-06T09:34:33;10.43;;;4.57;;
23155;SDS011;11746;50.876;4.246;2022-09-06T09:39:48;4.38;;;3.40;;
23155;SDS011;11746;50.876;4.246;2022-09-06T09:42:30;6.00;;;3.70;;
23155;SDS011;11746;50.876;4.246;2022-09-06T09:44:59;5.85;;;3.58;;
23155;SDS011;11746;50.876;4.246;2022-09-06T09:47:31;4.00;;;3.33;;
23155;SDS011;11746;50.876;4.246;2022-09-06T09:49:58;6.45;;;3.65;;
23155;SDS011;11746;50.876;4.246;2022-09-06T09:52:25;5.78;;;3.00;;
23155;SDS011;11746;50.876;4.246;2022-09-06T09:54:57;5.20;;;3.25;;
23155;SDS011;11746;50.876;4.246;2022-09-06T09:57:26;5.57;;;2.97;;
23155;SDS011;11746;50.876;4.246;2022-09-06T09:59:55;8.45;;;2.78;;
23155;SDS011;11746;50.876;4.246;2022-09-06T10:05:04;5.68;;;2.45;;
23155;SDS011;11746;50.876;4.246;2022-09-06T10:07:55;5.93;;;2.85;;
23155;SDS011;11746;50.876;4.246;2022-09-06T10:15:38;4.40;;;2.25;;
23155;SDS011;11746;50.876;4.246;2022-09-06T10:18:05;5.68;;;2.30;;
23155;SDS011;11746;50.876;4.246;2022-09-06T10:20:41;4.80;;;2.47;;
23155;SDS011;11746;50.876;4.246;2022-09-06T10:23:14;5.72;;;2.05;;
23155;SDS011;11746;50.876;4.246;2022-09-06T10:25:46;3.93;;;2.17;;
23155;SDS011;11746;50.876;4.246;2022-09-06T10:36:38;5.97;;;2.58;;
23155;SDS011;11746;50.876;4.246;2022-09-06T10:47:18;4.05;;;2.05;;
23155;SDS011;11746;50.876;4.246;2022-09-06T10:49:44;5.45;;;2.60;;
23155;SDS011;11746;50.876;4.246;2022-09-06T10:52:22;7.32;;;2.45;;
23155;SDS011;11746;50.876;4.246;2022-09-06T10:54:57;4.32;;;2.00;;
23155;SDS011;11746;50.876;4.246;2022-09-06T10:57:33;5.07;;;1.98;;
23155;SDS011;11746;50.876;4.246;2022-09-06T11:00:20;6.63;;;2.50;;
23155;SDS011;11746;50.876;4.246;2022-09-06T11:05:16;5.75;;;2.08;;
23155;SDS011;11746;50.876;4.246;2022-09-06T11:08:07;6.13;;;2.17;;
23155;SDS011;11746;50.876;4.246;2022-09-06T11:10:53;5.55;;;2.50;;
23155;SDS011;11746;50.876;4.246;2022-09-06T11:13:21;3.47;;;2.17;;
23155;SDS011;11746;50.876;4.246;2022-09-06T11:18:43;5.20;;;1.95;;
23155;SDS011;11746;50.876;4.246;2022-09-06T11:29:32;6.40;;;2.20;;
23155;SDS011;11746;50.876;4.246;2022-09-06T11:32:00;3.00;;;1.80;;
23155;SDS011;11746;50.876;4.246;2022-09-06T11:34:35;10.30;;;2.40;;
23155;SDS011;11746;50.876;4.246;2022-09-06T11:37:06;6.03;;;2.13;;
23155;SDS011;11746;50.876;4.246;2022-09-06T11:39:46;3.75;;;1.77;;
23155;SDS011;11746;50.876;4.246;2022-09-06T11:45:14;6.97;;;1.98;;
23155;SDS011;11746;50.876;4.246;2022-09-06T11:47:46;3.45;;;1.80;;
23155;SDS011;11746;50.876;4.246;2022-09-06T11:52:52;5.32;;;1.80;;
23155;SDS011;11746;50.876;4.246;2022-09-06T12:06:13;5.13;;;1.70;;
23155;SDS011;11746;50.876;4.246;2022-09-06T12:08:41;3.83;;;1.30;;
23155;SDS011;11746;50.876;4.246;2022-09-06T12:11:27;3.92;;;1.55;;
23155;SDS011;11746;50.876;4.246;2022-09-06T12:24:54;2.78;;;1.70;;
23155;SDS011;11746;50.876;4.246;2022-09-06T12:27:57;14.45;;;2.58;;
23155;SDS011;11746;50.876;4.246;2022-09-06T12:30:30;4.25;;;1.75;;
23155;SDS011;11746;50.876;4.246;2022-09-06T12:33:13;4.13;;;1.52;;
23155;SDS011;11746;50.876;4.246;2022-09-06T12:35:46;3.60;;;1.52;;
23155;SDS011;11746;50.876;4.246;2022-09-06T12:38:13;3.55;;;1.30;;
23155;SDS011;11746;50.876;4.246;2022-09-06T12:40:43;9.02;;;2.25;;
23155;SDS011;11746;50.876;4.246;2022-09-06T12:43:12;3.58;;;1.63;;
23155;SDS011;11746;50.876;4.246;2022-09-06T12:45:41;3.53;;;1.40;;
23155;SDS011;11746;50.876;4.246;2022-09-06T12:48:13;5.60;;;1.52;;
23155;SDS011;11746;50.876;4.246;2022-09-06T12:51:01;9.85;;;2.30;;
23155;SDS011;11746;50.876;4.246;2022-09-06T12:53:32;4.03;;;1.25;;
23155;SDS011;11746;50.876;4.246;2022-09-06T12:56:06;10.02;;;1.95;;
23155;SDS011;11746;50.876;4.246;2022-09-06T12:58:35;3.80;;;1.30;;
23155;SDS011;11746;50.876;4.246;2022-09-06T13:01:03;5.35;;;1.35;;
23155;SDS011;11746;50.876;4.246;2022-09-06T13:03:39;2.45;;;1.30;;
23155;SDS011;11746;50.876;4.246;2022-09-06T13:06:11;4.35;;;1.27;;
23155;SDS011;11746;50.876;4.246;2022-09-06T13:08:56;2.60;;;1.25;;
23155;SDS011;11746;50.876;4.246;2022-09-06T13:11:27;6.10;;;1.42;;
23155;SDS011;11746;50.876;4.246;2022-09-06T13:13:58;2.35;;;1.23;;
23155;SDS011;11746;50.876;4.246;2022-09-06T13:16:30;3.95;;;1.30;;
23155;SDS011;11746;50.876;4.246;2022-09-06T13:19:14;2.53;;;1.23;;
23155;SDS011;11746;50.876;4.246;2022-09-06T13:21:59;3.47;;;1.13;;
23155;SDS011;11746;50.876;4.246;2022-09-06T13:24:46;2.45;;;1.20;;
23155;SDS011;11746;50.876;4.246;2022-09-06T13:27:23;2.78;;;1.05;;
23155;SDS011;11746;50.876;4.246;2022-09-06T13:29:56;1.80;;;1.00;;
23155;SDS011;11746;50.876;4.246;2022-09-06T13:32:27;2.25;;;1.20;;
23155;SDS011;11746;50.876;4.246;2022-09-06T13:34:56;2.80;;;1.15;;
23155;SDS011;11746;50.876;4.246;2022-09-06T13:37:24;4.07;;;1.45;;
23155;SDS011;11746;50.876;4.246;2022-09-06T13:39:55;9.45;;;1.55;;
23155;SDS011;11746;50.876;4.246;2022-09-06T13:42:27;3.92;;;1.40;;
23155;SDS011;11746;50.876;4.246;2022-09-06T13:44:55;2.92;;;1.33;;
23155;SDS011;11746;50.876;4.246;2022-09-06T13:47:26;9.00;;;1.40;;
23155;SDS011;11746;50.876;4.246;2022-09-06T13:49:52;7.13;;;1.83;;
23155;SDS011;11746;50.876;4.246;2022-09-06T13:52:19;4.38;;;1.25;;
23155;SDS011;11746;50.876;4.246;2022-09-06T13:54:45;2.90;;;1.20;;
23155;SDS011;11746;50.876;4.246;2022-09-06T13:57:12;3.20;;;1.17;;
23155;SDS011;11746;50.876;4.246;2022-09-06T13:59:38;4.00;;;1.15;;
23155;SDS011;11746;50.876;4.246;2022-09-06T14:02:07;2.25;;;1.10;;
23155;SDS011;11746;50.876;4.246;2022-09-06T14:04:36;2.60;;;1.10;;
23155;SDS011;11746;50.876;4.246;2022-09-06T14:07:03;3.42;;;1.08;;
23155;SDS011;11746;50.876;4.246;2022-09-06T14:09:29;4.72;;;1.25;;
23155;SDS011;11746;50.876;4.246;2022-09-06T14:11:55;3.50;;;1.02;;
23155;SDS011;11746;50.876;4.246;2022-09-06T14:14:21;3.47;;;1.20;;
23155;SDS011;11746;50.876;4.246;2022-09-06T14:16:48;3.40;;;1.15;;
23155;SDS011;11746;50.876;4.246;2022-09-06T14:19:14;2.40;;;1.00;;
23155;SDS011;11746;50.876;4.246;2022-09-06T14:21:40;1.67;;;1.02;;
23155;SDS011;11746;50.876;4.246;2022-09-06T14:24:07;2.60;;;1.25;;
23155;SDS011;11746;50.876;4.246;2022-09-06T14:26:34;3.90;;;1.30;;
23155;SDS011;11746;50.876;4.246;2022-09-06T14:29:00;2.22;;;1.10;;
23155;SDS011;11746;50.876;4.246;2022-09-06T14:31:27;2.47;;;1.30;;
23155;SDS011;11746;50.876;4.246;2022-09-06T14:33:55;4.60;;;1.30;;
23155;SDS011;11746;50.876;4.246;2022-09-06T14:36:23;2.55;;;1.30;;
23155;SDS011;11746;50.876;4.246;2022-09-06T14:38:50;4.90;;;1.48;;
23155;SDS011;11746;50.876;4.246;2022-09-06T14:41:18;2.67;;;1.15;;
23155;SDS011;11746;50.876;4.246;2022-09-06T14:43:48;3.15;;;1.33;;
23155;SDS011;11746;50.876;4.246;2022-09-06T14:46:16;3.13;;;1.00;;
23155;SDS011;11746;50.876;4.246;2022-09-06T14:48:44;2.85;;;1.30;;
23155;SDS011;11746;50.876;4.246;2022-09-06T14:53:46;3.40;;;1.10;;
23155;SDS011;11746;50.876;4.246;2022-09-06T14:56:14;8.60;;;2.83;;
23155;SDS011;11746;50.876;4.246;2022-09-06T14:58:41;2.28;;;1.52;;
23155;SDS011;11746;50.876;4.246;2022-09-06T15:01:11;3.58;;;1.05;;
23155;SDS011;11746;50.876;4.246;2022-09-06T15:03:40;4.57;;;1.40;;
23155;SDS011;11746;50.876;4.246;2022-09-06T15:06:08;3.10;;;1.38;;
23155;SDS011;11746;50.876;4.246;2022-09-06T15:08:35;2.95;;;1.70;;
23155;SDS011;11746;50.876;4.246;2022-09-06T15:11:02;6.63;;;1.33;;
23155;SDS011;11746;50.876;4.246;2022-09-06T15:13:31;5.55;;;1.33;;
23155;SDS011;11746;50.876;4.246;2022-09-06T15:16:07;7.60;;;1.23;;
23155;SDS011;11746;50.876;4.246;2022-09-06T15:18:34;5.38;;;1.27;;
23155;SDS011;11746;50.876;4.246;2022-09-06T15:21:13;6.10;;;1.85;;
23155;SDS011;11746;50.876;4.246;2022-09-06T15:23:40;11.07;;;2.00;;
23155;SDS011;11746;50.876;4.246;2022-09-06T15:26:10;6.47;;;2.10;;
23155;SDS011;11746;50.876;4.246;2022-09-06T15:28:38;7.65;;;1.70;;
23155;SDS011;11746;50.876;4.246;2022-09-06T15:31:05;10.38;;;1.70;;
23155;SDS011;11746;50.876;4.246;2022-09-06T15:33:39;8.33;;;1.90;;
23155;SDS011;11746;50.876;4.246;2022-09-06T15:36:07;4.80;;;1.58;;
23155;SDS011;11746;50.876;4.246;2022-09-06T15:38:35;5.28;;;1.50;;
23155;SDS011;11746;50.876;4.246;2022-09-06T15:41:10;5.00;;;1.60;;
23155;SDS011;11746;50.876;4.246;2022-09-06T15:43:38;7.93;;;1.90;;
23155;SDS011;11746;50.876;4.246;2022-09-06T15:46:06;3.03;;;1.60;;
23155;SDS011;11746;50.876;4.246;2022-09-06T15:48:41;6.15;;;1.95;;
23155;SDS011;11746;50.876;4.246;2022-09-06T15:51:09;4.15;;;1.30;;
23155;SDS011;11746;50.876;4.246;2022-09-06T15:53:37;2.38;;;1.20;;
23155;SDS011;11746;50.876;4.246;2022-09-06T15:56:04;3.20;;;1.13;;
23155;SDS011;11746;50.876;4.246;2022-09-06T15:58:31;2.63;;;1.08;;
23155;SDS011;11746;50.876;4.246;2022-09-06T16:00:59;3.80;;;1.50;;
23155;SDS011;11746;50.876;4.246;2022-09-06T16:03:30;3.95;;;1.60;;
23155;SDS011;11746;50.876;4.246;2022-09-06T16:06:04;4.97;;;1.35;;
23155;SDS011;11746;50.876;4.246;2022-09-06T16:10:58;2.08;;;1.20;;
23155;SDS011;11746;50.876;4.246;2022-09-06T16:13:30;4.05;;;1.20;;
23155;SDS011;11746;50.876;4.246;2022-09-06T16:15:57;3.22;;;1.40;;
23155;SDS011;11746;50.876;4.246;2022-09-06T16:18:24;5.70;;;1.33;;
23155;SDS011;11746;50.876;4.246;2022-09-06T16:20:52;4.28;;;1.30;;
23155;SDS011;11746;50.876;4.246;2022-09-06T16:23:18;2.53;;;1.45;;
23155;SDS011;11746;50.876;4.246;2022-09-06T16:25:48;5.03;;;1.33;;
23155;SDS011;11746;50.876;4.246;2022-09-06T16:28:17;5.15;;;1.20;;
23155;SDS011;11746;50.876;4.246;2022-09-06T16:30:44;4.35;;;1.45;;
23155;SDS011;11746;50.876;4.246;2022-09-06T16:33:11;3.20;;;1.30;;
23155;SDS011;11746;50.876;4.246;2022-09-06T16:35:40;2.78;;;1.30;;
23155;SDS011;11746;50.876;4.246;2022-09-06T16:38:07;6.07;;;1.27;;
23155;SDS011;11746;50.876;4.246;2022-09-06T16:40:34;2.33;;;1.08;;
23155;SDS011;11746;50.876;4.246;2022-09-06T16:43:01;3.65;;;1.25;;
23155;SDS011;11746;50.876;4.246;2022-09-06T16:45:28;3.17;;;1.23;;
23155;SDS011;11746;50.876;4.246;2022-09-06T16:47:56;4.32;;;1.08;;
23155;SDS011;11746;50.876;4.246;2022-09-06T16:50:21;7.22;;;1.45;;
23155;SDS011;11746;50.876;4.246;2022-09-06T16:52:48;3.58;;;1.42;;
23155;SDS011;11746;50.876;4.246;2022-09-06T16:55:14;4.70;;;1.48;;
23155;SDS011;11746;50.876;4.246;2022-09-06T16:57:41;6.78;;;1.90;;
23155;SDS011;11746;50.876;4.246;2022-09-06T17:00:07;3.55;;;1.20;;
23155;SDS011;11746;50.876;4.246;2022-09-06T17:02:35;4.40;;;1.25;;
23155;SDS011;11746;50.876;4.246;2022-09-06T17:05:02;3.72;;;1.30;;
23155;SDS011;11746;50.876;4.246;2022-09-06T17:07:28;3.30;;;1.20;;